Time;durP1;ratioP1;P1;durP2;ratioP2;P2;SDS_P1;SDS_P2;PMS_P1;PMS_P2;Temp;Humidity;BMP_temperature;BMP_pressure;BME280_temperature;BME280_humidity;BME280_pressure;Samples;Min_cycle;Max_cycle;Signal;HPM_P1;HPM_P2
2024/01/26 00:01:47;;;;;;;2.90;1.80;;;;;;;2.10;80.62;100884.45;113120;239;39128;-68
2024/01/26 00:04:21;;;;;;;2.10;1.80;;;;;;;2.10;80.75;100879.98;113174;239;38829;-68
2024/01/26 00:06:54;;;;;;;3.10;2.10;;;;;;;2.09;80.54;100882.90;113150;239;38868;-68
2024/01/26 00:09:28;;;;;;;3.60;2.90;;;;;;;2.07;80.61;100888.91;113150;239;38578;-67
2024/01/26 00:12:02;;;;;;;2.80;2.00;;;;;;;2.06;80.30;100893.73;113140;239;38544;-67
2024/01/26 00:14:36;;;;;;;4.80;3.20;;;;;;;2.03;79.96;100901.63;113117;239;38115;-67
2024/01/26 00:17:10;;;;;;;2.80;1.90;;;;;;;2.02;80.02;100899.40;113165;239;38700;-67
2024/01/26 00:19:43;;;;;;;2.20;1.60;;;;;;;2.04;80.18;100906.80;113140;239;39362;-68
2024/01/26 00:22:17;;;;;;;2.60;1.60;;;;;;;2.04;79.89;100909.73;113098;239;39176;-68
2024/01/26 00:24:51;;;;;;;2.00;1.50;;;;;;;2.03;80.14;100909.89;113121;239;38329;-66
2024/01/26 00:27:25;;;;;;;2.30;1.50;;;;;;;2.01;80.02;100912.28;113125;239;39117;-66
2024/01/26 00:29:58;;;;;;;2.00;1.80;;;;;;;2.01;80.09;100920.02;113141;239;40178;-66
2024/01/26 00:32:32;;;;;;;2.60;1.70;;;;;;;2.02;80.26;100927.27;113142;239;38523;-66
2024/01/26 00:35:07;;;;;;;2.50;1.50;;;;;;;2.04;80.05;100928.48;113135;239;39440;-68
2024/01/26 00:37:41;;;;;;;2.20;1.40;;;;;;;2.06;80.18;100931.92;113129;239;40201;-68
2024/01/26 00:40:16;;;;;;;2.00;1.30;;;;;;;2.06;80.03;100930.55;113176;239;38673;-68
2024/01/26 00:42:50;;;;;;;2.20;1.80;;;;;;;2.08;80.10;100934.87;113137;239;38717;-68
2024/01/26 00:45:24;;;;;;;1.60;1.50;;;;;;;2.06;80.11;100933.48;113180;239;37880;-66
2024/01/26 00:47:58;;;;;;;1.50;1.30;;;;;;;2.04;80.01;100933.30;113108;239;39813;-66
2024/01/26 00:50:31;;;;;;;1.50;1.30;;;;;;;2.04;79.94;100933.30;113118;239;39772;-66
2024/01/26 00:53:05;;;;;;;2.20;1.30;;;;;;;2.04;79.94;100939.50;113121;239;40639;-66
2024/01/26 00:55:39;;;;;;;1.70;1.20;;;;;;;2.05;79.88;100944.14;113149;239;39465;-68
2024/01/26 00:58:13;;;;;;;2.10;1.40;;;;;;;2.07;79.97;100946.40;113155;239;38960;-68
2024/01/26 01:00:47;;;;;;;1.80;1.20;;;;;;;2.09;80.16;100949.51;113144;239;38521;-66
2024/01/26 01:03:21;;;;;;;2.50;1.50;;;;;;;2.09;80.04;100951.91;113142;239;39799;-66
2024/01/26 01:05:55;;;;;;;1.40;1.30;;;;;;;2.07;79.97;100953.63;112918;239;39313;-66
2024/01/26 01:08:29;;;;;;;1.60;1.30;;;;;;;2.04;79.87;100951.55;113132;239;38767;-66
2024/01/26 01:11:05;;;;;;;2.30;1.40;;;;;;;2.02;79.77;100948.95;113119;239;38871;-66
2024/01/26 01:13:40;;;;;;;2.40;1.70;;;;;;;1.98;79.51;100947.20;113143;239;40316;-66
2024/01/26 01:16:15;;;;;;;1.80;1.30;;;;;;;1.96;79.62;100948.73;113146;239;38306;-69
2024/01/26 01:18:49;;;;;;;2.40;1.70;;;;;;;1.96;79.85;100952.85;113127;239;39371;-69
2024/01/26 01:21:23;;;;;;;2.30;1.70;;;;;;;1.95;79.83;100950.27;113108;239;38587;-67
2024/01/26 01:23:56;;;;;;;1.60;1.40;;;;;;;1.96;80.02;100958.19;113163;239;38537;-67
2024/01/26 01:26:30;;;;;;;2.60;1.50;;;;;;;1.96;80.00;100960.08;112923;239;41641;-68
2024/01/26 01:29:04;;;;;;;1.80;1.30;;;;;;;1.95;79.94;100965.77;113145;239;38544;-67
2024/01/26 01:31:38;;;;;;;1.30;1.20;;;;;;;1.91;79.53;100974.52;113142;239;38573;-67
2024/01/26 01:34:11;;;;;;;1.20;1.10;;;;;;;1.92;79.49;100978.14;113138;239;38587;-66
2024/01/26 01:36:45;;;;;;;1.50;1.20;;;;;;;1.92;79.17;100982.10;113101;239;40461;-66
2024/01/26 01:39:19;;;;;;;2.60;1.90;;;;;;;1.89;78.66;100985.67;113141;239;38151;-68
2024/01/26 01:41:53;;;;;;;1.30;1.20;;;;;;;1.85;78.94;100981.17;112886;239;38498;-68
2024/01/26 01:44:27;;;;;;;1.30;1.20;;;;;;;1.82;78.60;100983.90;113133;239;38558;-67
2024/01/26 01:47:00;;;;;;;1.50;1.00;;;;;;;1.77;78.57;100980.43;113144;239;38454;-67
2024/01/26 01:49:34;;;;;;;1.90;1.00;;;;;;;1.75;78.56;100979.21;113140;239;40012;-67
2024/01/26 01:52:11;;;;;;;1.00;1.00;;;;;;;1.78;78.96;100985.61;113090;239;40055;-68
2024/01/26 01:54:45;;;;;;;1.60;0.90;;;;;;;1.81;79.20;100990.27;113160;239;40451;-68
2024/01/26 01:57:19;;;;;;;1.70;1.40;;;;;;;1.86;79.42;100994.77;113135;239;39762;-68
2024/01/26 01:59:53;;;;;;;1.40;1.20;;;;;;;1.88;79.21;100994.45;113122;239;38828;-66
2024/01/26 02:02:26;;;;;;;1.90;1.20;;;;;;;1.88;79.21;100999.61;113132;239;40001;-68
2024/01/26 02:05:00;;;;;;;4.70;1.60;;;;;;;1.86;78.98;101001.83;113137;239;40136;-68
2024/01/26 02:07:34;;;;;;;1.80;1.40;;;;;;;1.83;79.16;101003.00;113150;239;38514;-68
2024/01/26 02:10:09;;;;;;;3.60;3.30;;;;;;;1.81;79.20;101010.55;113130;239;38810;-68
2024/01/26 02:12:43;;;;;;;3.60;2.90;;;;;;;1.81;79.16;101011.93;113129;239;39031;-68
2024/01/26 02:15:17;;;;;;;2.00;1.60;;;;;;;1.82;79.33;101013.66;113138;239;39828;-70
2024/01/26 02:17:50;;;;;;;1.90;1.70;;;;;;;1.84;79.56;101011.11;113124;239;38597;-69
2024/01/26 02:20:25;;;;;;;1.50;1.40;;;;;;;1.83;79.45;101011.11;113135;239;38539;-67
2024/01/26 02:22:58;;;;;;;3.80;3.30;;;;;;;1.85;79.62;101013.00;113115;239;37814;-67
2024/01/26 02:25:32;;;;;;;3.20;2.90;;;;;;;1.85;79.60;101015.41;113140;239;38762;-66
2024/01/26 02:28:06;;;;;;;3.80;3.40;;;;;;;1.84;79.56;101014.02;113044;239;172619;-66
2024/01/26 02:30:40;;;;;;;3.60;3.30;;;;;;;1.84;79.67;101010.42;113127;239;39539;-66
2024/01/26 02:33:14;;;;;;;2.50;2.00;;;;;;;1.85;79.52;101008.52;113123;239;38349;-66
2024/01/26 02:35:48;;;;;;;1.70;1.40;;;;;;;1.89;79.74;101005.63;113149;239;39582;-66
2024/01/26 02:38:22;;;;;;;1.80;1.60;;;;;;;1.95;79.82;101011.02;113151;239;38478;-66
2024/01/26 02:40:56;;;;;;;8.50;7.60;;;;;;;1.96;79.77;101011.36;113139;239;39522;-68
2024/01/26 02:43:29;;;;;;;9.40;8.60;;;;;;;1.94;79.39;101015.31;113137;239;39749;-68
2024/01/26 02:46:08;;;;;;;4.20;3.80;;;;;;;1.89;79.38;101020.44;113148;239;38609;-68
2024/01/26 02:48:42;;;;;;;3.20;2.10;;;;;;;1.86;79.52;101018.67;113160;239;39044;-68
2024/01/26 02:51:16;;;;;;;1.60;1.40;;;;;;;1.86;79.63;101022.45;113178;239;40216;-66
2024/01/26 02:53:50;;;;;;;1.50;1.40;;;;;;;1.87;79.56;101025.91;113150;239;39876;-66
2024/01/26 02:56:24;;;;;;;1.90;1.60;;;;;;;1.90;79.60;101031.79;113033;239;38018;-66
2024/01/26 02:58:58;;;;;;;2.70;1.60;;;;;;;1.93;79.81;101035.09;113115;239;39736;-68
2024/01/26 03:01:31;;;;;;;2.10;1.40;;;;;;;1.93;79.62;101039.23;113174;239;38498;-68
2024/01/26 03:04:06;;;;;;;1.80;1.50;;;;;;;1.93;79.62;101044.90;113128;239;38401;-67
2024/01/26 03:06:40;;;;;;;1.70;1.40;;;;;;;1.92;79.80;101044.20;113151;239;39902;-67
2024/01/26 03:09:14;;;;;;;3.00;2.50;;;;;;;1.91;79.73;101040.92;113151;239;38982;-68
2024/01/26 03:11:48;;;;;;;10.90;8.60;;;;;;;1.90;79.64;101041.25;113123;239;39732;-68
2024/01/26 03:14:22;;;;;;;5.80;4.80;;;;;;;1.89;79.36;101041.42;113112;239;38415;-67
2024/01/26 03:16:56;;;;;;;2.60;1.90;;;;;;;1.92;79.35;101046.45;113099;239;38803;-68
2024/01/26 03:19:34;;;;;;;2.20;1.70;;;;;;;1.94;79.51;101045.24;113142;239;38914;-68
2024/01/26 03:22:08;;;;;;;1.90;1.80;;;;;;;1.97;79.60;101050.08;113135;239;38321;-68
2024/01/26 03:24:42;;;;;;;1.90;1.40;;;;;;;1.96;79.69;101053.86;113119;239;39694;-67
2024/01/26 03:27:16;;;;;;;1.80;1.40;;;;;;;1.95;79.59;101054.38;113116;239;39518;-67
2024/01/26 03:29:50;;;;;;;2.20;1.90;;;;;;;1.94;79.68;101056.09;113056;239;175075;-68
2024/01/26 03:32:24;;;;;;;2.00;1.60;;;;;;;1.96;79.76;101058.85;113117;239;38599;-68
2024/01/26 03:34:58;;;;;;;2.40;1.60;;;;;;;1.96;79.61;101060.23;113127;239;39392;-68
2024/01/26 03:37:32;;;;;;;2.00;1.30;;;;;;;1.97;79.50;101062.98;113129;239;38273;-68
2024/01/26 03:40:08;;;;;;;2.00;1.50;;;;;;;1.96;79.54;101064.02;113139;239;38575;-66
2024/01/26 03:42:41;;;;;;;2.30;1.70;;;;;;;1.96;79.46;101065.58;113105;239;39531;-66
2024/01/26 03:45:15;;;;;;;2.10;1.60;;;;;;;1.90;79.00;101066.55;113115;239;38859;-68
2024/01/26 03:47:49;;;;;;;1.50;1.40;;;;;;;1.87;79.49;101064.61;113127;239;38857;-68
2024/01/26 03:50:23;;;;;;;2.00;1.50;;;;;;;1.85;79.58;101064.44;113128;239;39757;-67
2024/01/26 03:52:57;;;;;;;1.40;1.10;;;;;;;1.85;79.55;101069.77;113145;239;39325;-67
2024/01/26 03:55:31;;;;;;;1.20;1.10;;;;;;;1.85;79.42;101065.81;113018;239;189458;-67
2024/01/26 03:58:05;;;;;;;1.40;1.10;;;;;;;1.82;79.24;101068.90;113003;239;175094;-67
2024/01/26 04:00:39;;;;;;;1.70;1.50;;;;;;;1.84;79.20;101076.65;113147;239;38704;-66
2024/01/26 04:03:12;;;;;;;1.20;0.90;;;;;;;1.83;79.07;101085.42;113115;239;38673;-66
2024/01/26 04:05:46;;;;;;;1.80;1.20;;;;;;;1.81;78.94;101083.33;113174;239;38530;-68
2024/01/26 04:08:20;;;;;;;1.50;1.40;;;;;;;1.78;78.74;101093.80;113140;239;38681;-68
2024/01/26 04:10:54;;;;;;;2.00;1.40;;;;;;;1.74;78.72;101095.48;113128;239;38305;-67
2024/01/26 04:13:28;;;;;;;1.30;1.00;;;;;;;1.74;79.00;101097.55;113112;239;39358;-68
2024/01/26 04:16:01;;;;;;;1.00;0.90;;;;;;;1.76;79.08;101099.79;113120;239;40320;-68
2024/01/26 04:18:35;;;;;;;1.60;1.20;;;;;;;1.78;79.19;101103.79;113129;239;38513;-68
2024/01/26 04:21:09;;;;;;;1.20;1.10;;;;;;;1.81;78.88;101108.10;113151;239;39990;-66
2024/01/26 04:23:43;;;;;;;1.40;1.30;;;;;;;1.82;79.02;101111.21;113163;239;38795;-66
2024/01/26 04:26:18;;;;;;;1.20;1.00;;;;;;;1.83;79.15;101115.86;113019;239;189100;-67
2024/01/26 04:28:52;;;;;;;1.50;1.20;;;;;;;1.84;78.99;101116.04;113124;239;38602;-67
2024/01/26 04:31:26;;;;;;;1.70;1.30;;;;;;;1.80;79.06;101115.14;113172;239;38576;-68
2024/01/26 04:34:00;;;;;;;6.80;6.20;;;;;;;1.80;78.88;101112.73;113145;239;38784;-68
2024/01/26 04:36:34;;;;;;;3.60;3.30;;;;;;;1.80;78.96;101111.36;113149;239;39488;-68
2024/01/26 04:39:11;;;;;;;2.80;2.10;;;;;;;1.84;79.17;101111.40;113149;239;38330;-68
2024/01/26 04:41:45;;;;;;;2.10;1.90;;;;;;;1.86;79.09;101110.03;113123;239;40099;-69
2024/01/26 04:44:18;;;;;;;2.00;1.90;;;;;;;1.86;78.85;101112.27;113163;239;39662;-68
2024/01/26 04:46:55;;;;;;;1.30;1.20;;;;;;;1.83;78.90;101112.09;113169;239;38855;-68
2024/01/26 04:49:29;;;;;;;1.50;1.20;;;;;;;1.81;78.75;101120.48;113129;239;39563;-66
2024/01/26 04:52:03;;;;;;;1.60;1.40;;;;;;;1.77;78.61;101118.90;113141;239;38571;-66
2024/01/26 04:54:38;;;;;;;3.70;3.40;;;;;;;1.72;78.45;101121.43;113129;239;38602;-66
2024/01/26 04:57:12;;;;;;;2.00;1.20;;;;;;;1.68;78.35;101128.10;113145;239;39039;-66
2024/01/26 04:59:46;;;;;;;1.00;0.90;;;;;;;1.68;78.20;101127.77;113135;239;38570;-67
2024/01/26 05:02:20;;;;;;;1.50;1.00;;;;;;;1.70;78.43;101125.02;113109;239;38533;-67
2024/01/26 05:04:53;;;;;;;1.60;1.10;;;;;;;1.74;78.41;101125.06;113139;239;39735;-67
2024/01/26 05:07:27;;;;;;;1.40;1.20;;;;;;;1.75;78.08;101128.00;112877;239;349493;-67
2024/01/26 05:10:01;;;;;;;1.10;1.00;;;;;;;1.72;78.26;101127.27;113169;239;39765;-68
2024/01/26 05:12:36;;;;;;;1.50;1.00;;;;;;;1.71;78.31;101131.21;113006;239;190080;-68
2024/01/26 05:15:12;;;;;;;1.40;1.30;;;;;;;1.69;78.43;101132.76;113125;239;38077;-66
2024/01/26 05:17:46;;;;;;;1.10;1.00;;;;;;;1.68;78.16;101137.05;113138;239;38725;-66
2024/01/26 05:20:20;;;;;;;1.50;1.10;;;;;;;1.66;77.89;101143.04;113163;239;38638;-67
2024/01/26 05:22:53;;;;;;;0.80;0.80;;;;;;;1.66;78.00;101142.17;113127;239;39213;-67
2024/01/26 05:25:27;;;;;;;1.20;1.10;;;;;;;1.67;78.14;101141.33;113129;239;38689;-67
2024/01/26 05:28:01;;;;;;;1.70;1.10;;;;;;;1.70;78.32;101142.40;113032;239;175084;-68
2024/01/26 05:30:35;;;;;;;1.90;1.00;;;;;;;1.73;78.45;101145.69;113115;239;38342;-67
2024/01/26 05:33:09;;;;;;;1.50;1.00;;;;;;;1.73;78.30;101147.07;113129;239;38678;-67
2024/01/26 05:35:43;;;;;;;0.90;0.90;;;;;;;1.71;78.32;101146.70;113156;239;38758;-67
2024/01/26 05:38:16;;;;;;;1.00;1.00;;;;;;;1.69;78.25;101146.69;113009;239;175146;-67
2024/01/26 05:40:51;;;;;;;1.40;1.30;;;;;;;1.64;78.00;101150.41;113114;239;38337;-69
2024/01/26 05:43:25;;;;;;;1.20;1.10;;;;;;;1.62;77.90;101163.28;113142;239;38558;-67
2024/01/26 05:45:58;;;;;;;1.60;1.10;;;;;;;1.60;77.66;101159.66;113150;239;38683;-68
2024/01/26 05:48:32;;;;;;;1.20;1.10;;;;;;;1.61;77.73;101160.01;113106;239;39014;-68
2024/01/26 05:51:07;;;;;;;1.20;0.90;;;;;;;1.61;77.70;101164.13;113113;239;40720;-66
2024/01/26 05:53:40;;;;;;;1.30;1.20;;;;;;;1.61;77.65;101165.51;113138;239;39097;-66
2024/01/26 05:56:14;;;;;;;1.30;0.90;;;;;;;1.60;77.86;101171.35;113155;239;39988;-67
2024/01/26 05:58:48;;;;;;;0.90;0.90;;;;;;;1.58;77.02;101175.11;113145;239;40183;-68
2024/01/26 06:01:22;;;;;;;1.60;0.90;;;;;;;1.50;77.11;101167.45;113007;239;175127;-68
2024/01/26 06:03:56;;;;;;;1.10;0.90;;;;;;;1.49;77.27;101167.62;113139;239;40014;-67
2024/01/26 06:06:30;;;;;;;1.00;0.80;;;;;;;1.46;76.95;101163.80;113168;239;38495;-66
2024/01/26 06:09:03;;;;;;;0.90;0.80;;;;;;;1.49;77.30;101168.65;113157;239;38812;-67
2024/01/26 06:11:37;;;;;;;1.10;1.00;;;;;;;1.51;77.41;101170.73;113155;239;39328;-67
2024/01/26 06:14:11;;;;;;;1.00;0.90;;;;;;;1.51;77.20;101173.64;113165;239;38338;-66
2024/01/26 06:16:47;;;;;;;1.70;0.80;;;;;;;1.51;77.00;101174.16;113130;239;38427;-66
2024/01/26 06:19:21;;;;;;;1.10;0.80;;;;;;;1.49;77.21;101177.77;113165;239;38277;-67
2024/01/26 06:21:55;;;;;;;1.40;0.90;;;;;;;1.48;77.13;101173.10;113119;239;38860;-67
2024/01/26 06:24:29;;;;;;;1.30;1.00;;;;;;;1.44;77.01;101175.80;113147;239;38352;-66
2024/01/26 06:27:03;;;;;;;1.30;0.80;;;;;;;1.43;77.31;101177.84;113146;239;38545;-66
2024/01/26 06:29:37;;;;;;;1.50;0.80;;;;;;;1.42;76.81;101179.90;113154;239;39976;-67
2024/01/26 06:32:11;;;;;;;1.30;0.80;;;;;;;1.44;77.04;101175.46;113173;239;39033;-67
2024/01/26 06:34:45;;;;;;;1.20;0.80;;;;;;;1.49;77.31;101175.86;113147;239;38255;-68
2024/01/26 06:37:21;;;;;;;1.00;0.90;;;;;;;1.52;77.23;101181.73;113156;239;40027;-68
2024/01/26 06:39:55;;;;;;;1.30;1.00;;;;;;;1.53;77.21;101179.19;113173;239;38506;-66
2024/01/26 06:42:32;;;;;;;1.90;0.90;;;;;;;1.52;76.99;101176.42;113128;239;38853;-66
2024/01/26 06:45:08;;;;;;;1.50;0.90;;;;;;;1.50;77.09;101179.66;113159;239;38935;-67
2024/01/26 06:47:42;;;;;;;2.70;1.00;;;;;;;1.51;77.21;101180.87;113163;239;38221;-67
2024/01/26 06:50:16;;;;;;;1.70;1.00;;;;;;;1.52;77.42;101176.42;113134;239;38815;-67
2024/01/26 06:52:50;;;;;;;1.80;1.10;;;;;;;1.54;77.15;101173.19;113112;239;38530;-67
2024/01/26 06:55:24;;;;;;;1.70;0.80;;;;;;;1.56;77.17;101173.52;112909;239;39018;-68
2024/01/26 06:57:58;;;;;;;1.40;0.90;;;;;;;1.59;76.89;101175.30;112878;239;39969;-68
2024/01/26 07:00:31;;;;;;;1.20;0.90;;;;;;;1.61;76.85;101173.25;113116;239;39583;-67
2024/01/26 07:03:06;;;;;;;1.60;0.90;;;;;;;1.62;76.81;101173.09;113125;239;38491;-67
2024/01/26 07:05:39;;;;;;;1.50;0.90;;;;;;;1.63;77.06;101175.16;113144;239;39001;-66
2024/01/26 07:08:13;;;;;;;2.00;1.00;;;;;;;1.66;77.12;101178.12;113154;239;38988;-66
2024/01/26 07:10:47;;;;;;;2.30;1.20;;;;;;;1.65;77.02;101177.08;113142;239;38798;-67
2024/01/26 07:13:21;;;;;;;1.50;1.00;;;;;;;1.65;77.23;101180.70;113114;239;39531;-67
2024/01/26 07:15:55;;;;;;;1.50;1.00;;;;;;;1.66;77.15;101189.30;113141;239;39015;-66
2024/01/26 07:18:28;;;;;;;1.30;0.90;;;;;;;1.66;76.94;101192.40;113140;238;38514;-66
2024/01/26 07:21:08;;;;;;;1.70;1.00;;;;;;;1.68;77.24;101195.69;113159;239;38317;-68
2024/01/26 07:23:44;;;;;;;2.50;1.70;;;;;;;1.72;77.51;101198.83;113136;239;39176;-68
2024/01/26 07:26:23;;;;;;;5.00;1.90;;;;;;;1.76;77.49;101202.66;113136;239;39591;-67
2024/01/26 07:28:57;;;;;;;2.30;1.70;;;;;;;1.78;77.26;101205.27;113134;239;39795;-67
2024/01/26 07:31:31;;;;;;;2.60;1.80;;;;;;;1.80;77.50;101205.28;113132;239;40118;-67
2024/01/26 07:34:05;;;;;;;3.50;1.30;;;;;;;1.83;77.56;101208.59;113167;239;38548;-67
2024/01/26 07:36:39;;;;;;;2.40;1.50;;;;;;;1.83;77.41;101214.61;113139;239;39566;-68
2024/01/26 07:39:13;;;;;;;3.70;2.20;;;;;;;1.83;77.42;101212.39;113126;239;38420;-66
2024/01/26 07:41:47;;;;;;;3.90;2.30;;;;;;;1.88;77.77;101210.54;113143;239;39594;-66
2024/01/26 07:44:21;;;;;;;2.60;1.70;;;;;;;1.94;77.68;101212.50;113138;239;39891;-68
2024/01/26 07:46:54;;;;;;;2.50;1.80;;;;;;;1.99;77.46;101214.11;113127;239;38890;-68
2024/01/26 07:49:28;;;;;;;3.00;2.10;;;;;;;2.03;77.28;101219.13;113174;239;38671;-70
2024/01/26 07:52:02;;;;;;;1.90;1.50;;;;;;;2.07;77.31;101222.96;113146;239;39017;-70
2024/01/26 07:54:36;;;;;;;4.00;1.70;;;;;;;2.11;77.16;101229.17;113125;239;38833;-69
2024/01/26 07:57:10;;;;;;;5.20;2.80;;;;;;;2.12;77.08;101226.95;113032;239;175139;-70
2024/01/26 07:59:44;;;;;;;4.30;2.90;;;;;;;2.11;77.14;101231.25;113134;239;39745;-70
2024/01/26 08:02:17;;;;;;;5.20;2.30;;;;;;;2.12;77.22;101228.88;113155;239;39940;-70
2024/01/26 08:04:53;;;;;;;2.80;2.30;;;;;;;2.12;77.07;101228.70;113136;239;38805;-69
2024/01/26 08:07:27;;;;;;;4.30;2.40;;;;;;;2.12;76.76;101233.52;112451;239;908119;-68
2024/01/26 08:10:01;;;;;;;7.10;2.80;;;;;;;2.13;76.74;101233.70;113168;239;38494;-67
2024/01/26 08:12:35;;;;;;;3.00;2.50;;;;;;;2.18;77.00;101232.54;113000;239;175125;-68
2024/01/26 08:15:10;;;;;;;3.20;2.60;;;;;;;2.21;76.71;101235.84;113140;239;38316;-67
2024/01/26 08:17:44;;;;;;;4.50;3.30;;;;;;;2.24;76.80;101236.39;113152;239;40430;-68
2024/01/26 08:20:18;;;;;;;6.80;3.60;;;;;;;2.27;76.42;101235.38;113131;239;39004;-67
2024/01/26 08:22:52;;;;;;;5.90;3.80;;;;;;;2.31;76.47;101236.28;113114;239;39863;-68
2024/01/26 08:25:26;;;;;;;5.20;3.60;;;;;;;2.33;76.11;101238.20;113117;239;38172;-67
2024/01/26 08:27:59;;;;;;;4.30;3.40;;;;;;;2.36;76.38;101233.06;113149;239;38999;-67
2024/01/26 08:30:33;;;;;;;6.20;3.40;;;;;;;2.38;76.00;101230.50;113128;239;39927;-68
2024/01/26 08:33:08;;;;;;;4.10;3.10;;;;;;;2.37;76.09;101227.39;113145;239;39035;-68
2024/01/26 08:35:41;;;;;;;4.20;3.50;;;;;;;2.38;76.24;101227.73;113154;239;39309;-69
2024/01/26 08:38:15;;;;;;;5.10;3.20;;;;;;;2.42;76.23;101226.05;113132;239;38454;-67
2024/01/26 08:40:51;;;;;;;4.30;2.70;;;;;;;2.47;75.80;101227.99;113135;239;38533;-67
2024/01/26 08:43:25;;;;;;;5.00;2.60;;;;;;;2.52;75.81;101228.89;113132;239;39481;-67
2024/01/26 08:45:58;;;;;;;5.70;3.40;;;;;;;2.58;76.22;101225.50;113151;239;38510;-66
2024/01/26 08:48:32;;;;;;;4.20;3.70;;;;;;;2.62;75.90;101223.13;113159;239;38395;-66
2024/01/26 08:51:06;;;;;;;4.00;3.20;;;;;;;2.65;75.79;101222.63;113139;239;38539;-67
2024/01/26 08:53:40;;;;;;;3.90;3.00;;;;;;;2.66;75.66;101220.21;113131;239;38987;-67
2024/01/26 08:56:14;;;;;;;3.70;3.30;;;;;;;2.68;75.74;101218.17;113104;239;39148;-66
2024/01/26 08:58:49;;;;;;;3.80;3.20;;;;;;;2.68;75.71;101213.88;113115;239;39166;-66
2024/01/26 09:01:23;;;;;;;4.30;2.80;;;;;;;2.67;75.51;101216.45;113102;239;39351;-66
2024/01/26 09:03:57;;;;;;;4.30;2.50;;;;;;;2.68;75.19;101217.83;113167;239;38347;-67
2024/01/26 09:06:31;;;;;;;3.80;2.90;;;;;;;2.71;75.13;101213.38;113109;239;39020;-67
2024/01/26 09:09:06;;;;;;;3.80;2.60;;;;;;;2.80;75.44;101210.34;113121;239;38842;-67
2024/01/26 09:11:40;;;;;;;4.00;3.40;;;;;;;2.87;75.53;101215.05;113013;239;175020;-67
2024/01/26 09:14:16;;;;;;;3.80;2.90;;;;;;;2.95;75.58;101214.93;113127;239;38598;-68
2024/01/26 09:16:55;;;;;;;3.70;3.10;;;;;;;3.03;75.54;101218.08;113139;239;38542;-69
2024/01/26 09:19:29;;;;;;;4.40;2.70;;;;;;;3.07;75.14;101218.63;113153;239;38422;-68
2024/01/26 09:22:03;;;;;;;3.40;3.00;;;;;;;3.09;75.11;101215.86;113034;239;175056;-68
2024/01/26 09:24:37;;;;;;;4.70;3.00;;;;;;;3.12;74.72;101215.21;113141;239;39077;-68
2024/01/26 09:27:11;;;;;;;3.30;2.70;;;;;;;3.11;74.87;101213.14;113154;239;38330;-69
2024/01/26 09:29:45;;;;;;;4.60;3.00;;;;;;;3.15;75.23;101207.64;113124;239;39888;-68
2024/01/26 09:32:18;;;;;;;3.80;2.20;;;;;;;3.19;74.79;101200.94;113153;239;40209;-68
2024/01/26 09:34:52;;;;;;;2.60;2.30;;;;;;;3.19;74.41;101195.58;113151;239;38850;-68
2024/01/26 09:37:26;;;;;;;3.80;2.30;;;;;;;3.25;74.50;101189.06;113165;239;38800;-68
2024/01/26 09:40:00;;;;;;;2.90;2.30;;;;;;;3.34;74.61;101192.39;113111;239;39773;-68
2024/01/26 09:42:34;;;;;;;3.70;2.30;;;;;;;3.44;74.72;101196.73;113136;239;38411;-69
2024/01/26 09:45:11;;;;;;;3.40;2.70;;;;;;;3.55;74.42;101204.23;113117;239;39082;-68
2024/01/26 09:47:45;;;;;;;3.40;2.20;;;;;;;3.57;73.46;101198.00;113132;239;39114;-69
2024/01/26 09:50:19;;;;;;;2.40;1.90;;;;;;;3.56;72.51;101195.42;113101;239;38168;-67
2024/01/26 09:52:53;;;;;;;3.00;2.30;;;;;;;3.56;72.37;101189.38;113004;239;172477;-67
2024/01/26 09:55:26;;;;;;;2.60;2.10;;;;;;;3.54;72.12;101184.70;113134;239;37890;-67
2024/01/26 09:58:00;;;;;;;4.00;3.00;;;;;;;3.55;72.40;101182.65;113137;239;38355;-68
2024/01/26 10:00:34;;;;;;;3.10;2.30;;;;;;;3.55;71.46;101181.10;113168;239;38994;-68
2024/01/26 10:03:08;;;;;;;2.10;1.90;;;;;;;3.52;71.78;101178.33;113102;239;39253;-69
2024/01/26 10:05:42;;;;;;;2.00;1.80;;;;;;;3.50;71.35;101173.83;113160;239;38293;-68
2024/01/26 10:08:16;;;;;;;3.60;1.90;;;;;;;3.52;70.95;101172.46;113154;239;38832;-68
2024/01/26 10:10:50;;;;;;;4.00;1.90;;;;;;;3.53;71.08;101168.65;113140;239;38552;-68
2024/01/26 10:13:24;;;;;;;2.20;1.50;;;;;;;3.55;70.89;101160.74;113148;239;38594;-69
2024/01/26 10:16:07;;;;;;;2.40;1.70;;;;;;;3.59;71.04;101163.52;113161;239;38402;-68
2024/01/26 10:18:45;;;;;;;2.40;1.80;;;;;;;3.64;71.31;101156.63;113145;239;39720;-68
2024/01/26 10:21:20;;;;;;;2.40;1.80;;;;;;;3.72;71.14;101156.83;113142;239;38707;-68
2024/01/26 10:23:54;;;;;;;2.70;1.70;;;;;;;3.73;70.32;101151.30;113140;239;38821;-68
2024/01/26 10:26:30;;;;;;;4.80;2.90;;;;;;;3.73;70.54;101143.70;113123;239;39756;-69
2024/01/26 10:29:03;;;;;;;5.90;3.70;;;;;;;3.74;70.07;101135.59;113122;239;39897;-68
2024/01/26 10:31:37;;;;;;;3.70;2.50;;;;;;;3.75;69.99;101134.74;113107;239;40014;-68
2024/01/26 10:34:13;;;;;;;2.90;2.00;;;;;;;3.77;70.21;101133.19;113139;239;39169;-67
2024/01/26 10:36:48;;;;;;;3.50;2.30;;;;;;;3.78;70.16;101133.20;113156;239;39081;-68
2024/01/26 10:39:28;;;;;;;3.10;2.30;;;;;;;3.81;70.36;101128.88;113146;239;38647;-68
2024/01/26 10:42:04;;;;;;;3.30;2.30;;;;;;;3.86;70.39;101124.92;113126;239;39425;-68
2024/01/26 10:44:38;;;;;;;3.40;2.50;;;;;;;3.91;69.99;101120.10;113140;239;38549;-68
2024/01/26 10:47:12;;;;;;;4.00;2.20;;;;;;;3.97;70.08;101113.89;113162;239;39936;-68
2024/01/26 10:49:48;;;;;;;2.70;2.20;;;;;;;4.03;69.87;101112.52;113126;239;38732;-67
2024/01/26 10:52:23;;;;;;;2.80;2.30;;;;;;;4.08;70.11;101109.41;113136;239;38797;-68
2024/01/26 10:54:56;;;;;;;3.50;2.30;;;;;;;4.17;70.23;101108.71;113161;239;39742;-67
2024/01/26 10:57:30;;;;;;;3.60;2.40;;;;;;;4.22;69.69;101101.11;112885;239;39512;-67
2024/01/26 11:00:06;;;;;;;3.50;2.10;;;;;;;4.26;69.71;101098.34;113071;239;174983;-68
2024/01/26 11:02:40;;;;;;;2.70;2.20;;;;;;;4.31;69.49;101094.03;113137;239;39517;-69
2024/01/26 11:05:14;;;;;;;3.90;1.90;;;;;;;4.34;69.71;101085.23;113150;239;38983;-68
2024/01/26 11:07:47;;;;;;;3.00;2.10;;;;;;;4.35;69.46;101087.47;113110;239;40106;-68
2024/01/26 11:10:25;;;;;;;3.50;2.60;;;;;;;4.39;69.17;101091.45;113146;239;38268;-68
2024/01/26 11:13:06;;;;;;;3.40;2.80;;;;;;;4.38;68.63;101091.61;112900;239;40445;-69
2024/01/26 11:15:42;;;;;;;4.10;3.30;;;;;;;4.36;67.94;101089.89;113130;239;38674;-67
2024/01/26 11:18:26;;;;;;;4.40;2.80;;;;;;;4.32;67.59;101085.39;113124;239;38701;-67
2024/01/26 11:21:05;;;;;;;6.30;2.70;;;;;;;4.27;67.68;101086.44;113125;239;39727;-69
2024/01/26 11:23:44;;;;;;;4.10;2.80;;;;;;;4.28;68.11;101089.54;113118;239;39627;-69
2024/01/26 11:26:16;;;;;;;;;;;;;;;4.30;68.03;101084.71;113140;239;38217;-67
2024/01/26 11:28:51;;;;;;;2.30;1.80;;;;;;;4.30;68.15;101081.09;113118;239;39742;-67
2024/01/26 11:31:32;;;;;;;2.70;1.70;;;;;;;4.32;67.83;101079.17;112890;239;38397;-69
2024/01/26 11:34:06;;;;;;;2.60;2.20;;;;;;;4.34;67.38;101076.77;113134;239;39208;-68
2024/01/26 11:36:40;;;;;;;3.20;1.60;;;;;;;4.37;67.30;101068.12;113145;239;38855;-68
2024/01/26 11:39:15;;;;;;;2.40;1.80;;;;;;;4.36;66.75;101064.31;113040;239;174942;-68
2024/01/26 11:41:49;;;;;;;2.90;1.70;;;;;;;4.36;66.79;101069.16;113117;239;39798;-69
2024/01/26 11:44:23;;;;;;;2.10;1.30;;;;;;;4.35;66.81;101066.57;113143;239;40133;-67
2024/01/26 11:46:57;;;;;;;1.60;1.50;;;;;;;4.33;66.93;101062.27;113143;239;38739;-67
2024/01/26 11:49:31;;;;;;;2.50;2.20;;;;;;;4.31;66.55;101064.16;113161;239;39612;-68
2024/01/26 11:52:05;;;;;;;1.70;1.60;;;;;;;4.29;66.86;101066.41;113133;239;38371;-68
2024/01/26 11:54:42;;;;;;;2.30;1.80;;;;;;;4.28;67.06;101066.23;113149;239;38330;-68
2024/01/26 11:57:16;;;;;;;2.00;1.80;;;;;;;4.27;67.40;101063.11;113152;239;38616;-68
2024/01/26 11:59:49;;;;;;;1.70;1.60;;;;;;;4.25;66.92;101067.44;113133;239;38496;-67
2024/01/26 12:02:23;;;;;;;2.50;1.90;;;;;;;4.21;66.84;101061.92;113132;239;39530;-67
2024/01/26 12:04:57;;;;;;;2.20;1.80;;;;;;;4.18;67.00;101059.16;113130;239;38549;-68
2024/01/26 12:07:31;;;;;;;2.20;1.60;;;;;;;4.14;66.86;101058.65;113147;239;38269;-68